Time;durP1;ratioP1;P1;durP2;ratioP2;P2;SDS_P1;SDS_P2;PMS_P1;PMS_P2;Temp;Humidity;BMP_temperature;BMP_pressure;BME280_temperature;BME280_humidity;BME280_pressure;Samples;Min_cycle;Max_cycle;Signal;HPM_P1;HPM_P2
2022/01/28 00:03:34;;;;;;;10.85;7.95;;;;;;;15.81;44.73;101074.97;5038600;28;20048;-91
2022/01/28 00:06:07;;;;;;;10.50;7.43;;;;;;;15.82;44.69;101087.22;5021534;28;20038;-92
2022/01/28 00:39:38;;;;;;;9.98;7.50;;;;;;;15.80;44.47;101073.19;4967327;29;20055;-92
2022/01/28 00:42:08;;;;;;;9.57;7.35;;;;;;;15.80;44.56;101072.34;4981106;28;20093;-92
2022/01/28 00:44:34;;;;;;;8.90;7.38;;;;;;;15.79;44.33;101084.63;4979788;28;20015;-91
2022/01/28 00:47:11;;;;;;;10.23;7.40;;;;;;;15.79;44.44;101087.25;4964811;28;20034;-91
2022/01/28 00:50:00;;;;;;;9.55;7.25;;;;;;;15.80;44.49;101080.22;4982707;28;20035;-91
2022/01/28 00:52:29;;;;;;;10.27;7.75;;;;;;;15.79;44.54;101071.44;4982411;28;20042;-91
2022/01/28 00:55:22;;;;;;;9.27;7.05;;;;;;;15.79;44.33;101071.44;4982877;28;20018;-91
2022/01/28 00:57:59;;;;;;;8.88;7.30;;;;;;;15.79;44.65;101071.44;4983264;28;20026;-92
2022/01/28 01:00:32;;;;;;;9.02;6.82;;;;;;;15.80;44.64;101065.28;4996366;28;20022;-92
2022/01/28 01:07:09;;;;;;;9.02;7.32;;;;;;;15.78;44.40;101068.88;5000742;28;20074;-91
2022/01/28 01:09:40;;;;;;;9.43;7.45;;;;;;;15.79;44.30;101079.34;4984361;28;20053;-92
2022/01/28 01:12:27;;;;;;;8.85;6.55;;;;;;;15.78;44.40;101077.63;4999982;28;20019;-92
2022/01/28 01:15:25;;;;;;;9.02;7.03;;;;;;;15.77;44.45;101083.78;4984377;28;20034;-92
2022/01/28 01:18:26;;;;;;;7.78;5.93;;;;;;;15.78;44.67;101085.50;5000322;28;20023;-92
2022/01/28 01:21:03;;;;;;;9.13;7.40;;;;;;;15.77;44.55;101086.41;4997373;28;20037;-91
2022/01/28 01:24:08;;;;;;;9.40;6.70;;;;;;;15.78;44.40;101079.41;5003191;28;20038;-91
2022/01/28 01:26:41;;;;;;;8.13;6.72;;;;;;;15.77;44.39;101078.50;5016515;28;20032;-91
2022/01/28 01:29:14;;;;;;;8.50;6.70;;;;;;;15.77;44.32;101073.25;5016110;28;20076;-92
2022/01/28 01:41:56;;;;;;;8.63;6.10;;;;;;;15.78;44.43;101068.88;4996745;28;20029;-91
2022/01/28 01:52:55;;;;;;;8.80;6.60;;;;;;;15.76;44.21;101075.88;4993714;28;20124;-91
2022/01/28 01:55:23;;;;;;;8.77;6.28;;;;;;;15.76;44.10;101060.97;4992890;28;20038;-92
2022/01/28 01:57:56;;;;;;;7.78;5.95;;;;;;;15.75;44.14;101069.78;4977308;28;20126;-92
2022/01/28 02:00:47;;;;;;;7.38;5.72;;;;;;;15.75;44.31;101072.41;4993596;28;20114;-92
2022/01/28 02:03:20;;;;;;;8.70;6.38;;;;;;;15.76;44.25;101054.84;4991893;28;20058;-92
2022/01/28 02:05:49;;;;;;;6.80;5.38;;;;;;;15.74;44.34;101057.47;4979190;28;20018;-90
2022/01/28 02:08:16;;;;;;;8.20;6.25;;;;;;;15.75;44.20;101059.25;4978416;28;20035;-91
2022/01/28 02:10:43;;;;;;;8.52;6.53;;;;;;;15.76;44.44;101060.97;4977279;28;20035;-91
2022/01/28 02:13:14;;;;;;;8.07;6.35;;;;;;;15.76;44.27;101068.88;4993158;28;20049;-90
2022/01/28 02:15:43;;;;;;;7.57;5.72;;;;;;;15.73;44.18;101076.81;4994280;28;20026;-91
2022/01/28 02:18:12;;;;;;;7.85;6.07;;;;;;;15.76;44.16;101086.41;4977049;28;20042;-90
2022/01/28 02:20:48;;;;;;;7.40;6.05;;;;;;;15.75;44.29;101082.94;4992968;28;20065;-91
2022/01/28 02:23:28;;;;;;;7.60;5.80;;;;;;;15.74;44.33;101091.69;4993682;28;20039;-91
2022/01/28 02:25:57;;;;;;;7.53;5.50;;;;;;;15.76;44.27;101092.56;4992761;28;20046;-91
2022/01/28 02:28:34;;;;;;;7.25;5.40;;;;;;;15.73;44.07;101087.31;4997325;28;20137;-91
2022/01/28 02:31:04;;;;;;;;;;;;;;;15.76;44.39;101076.78;5015445;28;20088;-92
2022/01/28 02:33:33;;;;;;;7.72;6.15;;;;;;;15.73;44.26;101082.06;5015284;28;19909;-92
2022/01/28 02:36:04;;;;;;;7.63;6.00;;;;;;;15.75;44.31;101074.16;5014777;28;20106;-92
2022/01/28 02:38:32;;;;;;;7.38;5.95;;;;;;;15.74;44.07;101083.81;5011099;28;20080;-92
2022/01/28 02:41:03;;;;;;;7.30;6.13;;;;;;;15.75;44.25;101080.31;5016135;28;20076;-91
2022/01/28 02:46:02;;;;;;;7.57;5.93;;;;;;;15.76;44.18;101075.88;5036275;28;20456;-92
2022/01/28 02:48:33;;;;;;;8.23;6.15;;;;;;;15.73;44.13;101074.16;5034929;28;20022;-92
2022/01/28 03:01:02;;;;;;;7.97;6.30;;;;;;;15.73;44.15;101073.31;5037644;28;20139;-91
2022/01/28 03:03:32;;;;;;;8.45;6.15;;;;;;;15.71;44.37;101073.34;5018327;28;20042;-91
2022/01/28 03:06:07;;;;;;;7.15;5.40;;;;;;;15.70;44.09;101076.84;5000265;28;20014;-92
2022/01/28 03:08:56;;;;;;;7.40;5.55;;;;;;;15.72;43.94;101075.06;5037246;28;20037;-92
2022/01/28 03:17:03;;;;;;;6.93;5.20;;;;;;;15.69;44.23;101043.53;5038044;28;20033;-92
2022/01/28 03:19:47;;;;;;;7.15;5.25;;;;;;;15.69;44.07;101039.13;5010775;28;20065;-92
2022/01/28 03:22:19;;;;;;;7.32;5.68;;;;;;;15.70;44.08;101037.38;5021349;28;20045;-92
2022/01/28 03:24:50;;;;;;;7.30;5.32;;;;;;;15.67;44.07;101034.78;5023936;28;20084;-92
2022/01/28 03:27:47;;;;;;;8.50;6.10;;;;;;;15.69;44.17;101054.91;4994541;28;20047;-92
2022/01/28 03:30:22;;;;;;;7.35;5.97;;;;;;;15.69;44.14;101062.81;4997633;28;20039;-90
2022/01/28 03:32:53;;;;;;;6.78;5.00;;;;;;;15.68;43.90;101057.56;5002018;28;20023;-91
2022/01/28 03:35:21;;;;;;;6.85;5.43;;;;;;;15.68;44.05;101076.00;4982681;28;20062;-92
2022/01/28 03:37:47;;;;;;;7.45;5.80;;;;;;;15.69;44.00;101090.91;4970003;28;20391;-92
2022/01/28 03:40:20;;;;;;;6.75;5.15;;;;;;;15.67;43.88;101088.28;5002701;28;20039;-92
2022/01/28 03:42:54;;;;;;;7.80;5.43;;;;;;;15.68;43.82;101094.41;5000499;28;20038;-93
2022/01/28 03:45:22;;;;;;;7.25;5.65;;;;;;;15.69;43.80;101096.19;5003040;28;20025;-93
2022/01/28 03:47:57;;;;;;;7.25;5.78;;;;;;;15.69;43.92;101114.59;5002149;28;20031;-92
2022/01/28 03:50:34;;;;;;;7.32;5.60;;;;;;;15.67;43.90;101106.72;5000846;28;20086;-91
2022/01/28 03:53:23;;;;;;;7.07;5.68;;;;;;;15.67;44.21;101092.69;4997913;28;20114;-92
2022/01/28 03:55:57;;;;;;;7.78;5.65;;;;;;;15.67;43.80;101097.94;4995712;28;20035;-91
2022/01/28 03:58:24;;;;;;;7.60;5.68;;;;;;;15.68;43.95;101104.94;4980413;28;20117;-91
2022/01/28 04:00:53;;;;;;;6.57;5.10;;;;;;;15.66;43.80;101106.72;4998003;28;20015;-91
2022/01/28 04:03:40;;;;;;;7.07;5.38;;;;;;;15.66;43.67;101109.34;4969912;28;20043;-90
2022/01/28 04:11:27;;;;;;;6.50;4.85;;;;;;;15.66;43.86;101117.25;4997182;28;20031;-91
2022/01/28 04:11:47;;;;;;;6.50;4.80;;;;;;;15.65;43.67;101123.41;4999150;28;20018;-91
2022/01/28 04:14:21;;;;;;;7.10;4.90;;;;;;;15.64;43.82;101129.56;4997790;28;20019;-91
2022/01/28 04:19:50;;;;;;;6.65;5.00;;;;;;;15.64;43.75;101129.56;4997223;28;20037;-91
2022/01/28 04:22:18;;;;;;;6.82;5.03;;;;;;;15.63;43.81;101139.22;4982221;28;20031;-91
2022/01/28 04:24:44;;;;;;;6.80;4.88;;;;;;;15.63;43.70;101144.47;4981052;28;20031;-91
2022/01/28 04:27:11;;;;;;;6.90;5.18;;;;;;;15.64;43.71;101142.72;4998046;28;20058;-92
2022/01/28 04:29:44;;;;;;;6.65;5.15;;;;;;;15.64;43.79;101140.09;5017714;28;20049;-92
2022/01/28 04:32:18;;;;;;;6.95;5.00;;;;;;;15.62;43.72;101147.13;5017938;28;20022;-92
2022/01/28 04:34:58;;;;;;;6.45;4.78;;;;;;;15.62;43.72;101152.38;5017124;28;20049;-92
2022/01/28 04:37:42;;;;;;;6.57;4.97;;;;;;;15.62;43.79;101158.53;5015765;28;20105;-92
2022/01/28 04:44:14;;;;;;;6.00;4.57;;;;;;;15.62;43.75;101157.63;4996149;28;20070;-92
2022/01/28 04:46:49;;;;;;;7.25;5.07;;;;;;;15.62;43.76;101158.53;4979675;28;20054;-91
2022/01/28 04:49:24;;;;;;;7.60;5.53;;;;;;;15.61;43.58;101155.91;4978630;28;20049;-91
2022/01/28 04:52:27;;;;;;;6.85;5.18;;;;;;;15.60;43.51;101148.91;4981491;28;20034;-92
2022/01/28 04:57:41;;;;;;;7.00;5.03;;;;;;;15.62;43.58;101149.75;4979250;28;20034;-90
2022/01/28 05:10:56;;;;;;;6.40;4.70;;;;;;;15.61;43.64;101129.59;4998313;28;19913;-92
2022/01/28 05:27:10;;;;;;;6.95;5.10;;;;;;;15.59;43.74;101148.03;5018446;28;20112;-92
2022/01/28 05:29:41;;;;;;;5.50;4.20;;;;;;;15.59;43.62;101141.91;5034982;28;20010;-92
2022/01/28 05:32:15;;;;;;;6.05;4.57;;;;;;;15.57;43.59;101150.69;5019806;28;20052;-92
2022/01/28 05:34:51;;;;;;;6.47;4.70;;;;;;;15.59;43.58;101131.38;5005838;28;20018;-92
2022/01/28 05:37:18;;;;;;;6.38;4.55;;;;;;;15.56;43.75;101127.88;5021980;28;20024;-92
2022/01/28 05:39:45;;;;;;;6.53;4.70;;;;;;;15.57;43.87;101129.66;5005783;28;20048;-92
2022/01/28 05:42:13;;;;;;;5.55;4.18;;;;;;;15.57;43.85;101134.03;5005260;28;20049;-91
2022/01/28 05:44:46;;;;;;;6.10;4.88;;;;;;;15.58;43.58;101141.03;5038653;28;20030;-91
2022/01/28 05:47:16;;;;;;;6.20;4.65;;;;;;;15.59;43.63;101152.44;5004242;28;20041;-92
2022/01/28 05:49:44;;;;;;;5.95;4.63;;;;;;;15.57;43.75;101149.81;5021708;28;20022;-92
2022/01/28 05:52:11;;;;;;;6.07;4.47;;;;;;;15.60;43.76;101154.16;5006450;28;20024;-92
2022/01/28 05:54:39;;;;;;;6.32;4.32;;;;;;;15.57;43.66;101150.69;5006115;28;20050;-92
2022/01/28 05:57:06;;;;;;;6.50;4.43;;;;;;;15.57;43.74;101153.31;5022144;28;20022;-92
2022/01/28 05:59:32;;;;;;;5.65;4.50;;;;;;;15.60;43.91;101175.22;5005880;28;20017;-92
2022/01/28 06:01:59;;;;;;;6.68;4.82;;;;;;;15.59;43.72;101173.47;5022087;28;20018;-93
2022/01/28 06:04:25;;;;;;;6.57;4.50;;;;;;;15.56;43.48;101167.34;5022112;28;20034;-93
2022/01/28 06:06:53;;;;;;;5.82;4.22;;;;;;;15.57;44.03;101165.59;5021438;28;20110;-92
2022/01/28 06:09:19;;;;;;;6.07;4.55;;;;;;;15.56;43.86;101201.56;5016973;28;20033;-92
2022/01/28 06:11:46;;;;;;;5.95;4.30;;;;;;;15.57;43.68;101197.16;5005926;28;20056;-92
2022/01/28 06:14:16;;;;;;;5.82;4.38;;;;;;;15.57;43.86;101203.31;5022761;28;20010;-92
2022/01/28 06:16:43;;;;;;;5.93;4.30;;;;;;;15.56;43.69;101201.56;5022542;28;20041;-91
2022/01/28 06:19:10;;;;;;;5.43;4.05;;;;;;;15.57;43.64;101198.06;5034343;28;20017;-92
2022/01/28 06:21:37;;;;;;;5.97;4.40;;;;;;;15.56;43.65;101201.56;5031116;28;20041;-92
2022/01/28 07:15:10;;;;;;;7.30;4.88;;;;;;;15.52;43.49;101289.31;5095203;23;20063;-94
2022/01/28 07:17:36;;;;;;;6.60;4.57;;;;;;;15.51;43.47;101290.22;5816844;22;20977;-92
2022/01/28 07:20:08;;;;;;;6.53;4.20;;;;;;;15.51;43.61;101297.22;5085890;28;20028;-94
2022/01/28 07:22:35;;;;;;;6.13;4.82;;;;;;;15.50;43.47;101296.34;5116787;28;20052;-94
2022/01/28 07:25:00;;;;;;;5.72;4.20;;;;;;;15.51;43.44;101303.38;5100418;28;20023;-93
2022/01/28 07:27:28;;;;;;;6.03;3.97;;;;;;;15.51;43.61;101308.63;5099693;28;20023;-93
2022/01/28 07:30:22;;;;;;;5.93;4.22;;;;;;;15.51;43.70;101313.88;5098434;28;20012;-94
2022/01/28 07:36:11;;;;;;;6.68;4.50;;;;;;;15.53;43.34;101316.50;5118868;28;20058;-94
2022/01/28 07:38:43;;;;;;;5.70;4.05;;;;;;;15.51;43.43;101319.16;5120575;28;20016;-94
2022/01/28 07:41:09;;;;;;;6.28;4.55;;;;;;;15.52;43.38;101315.63;5102237;28;20096;-92
2022/01/28 07:43:42;;;;;;;6.95;4.72;;;;;;;15.51;43.81;101319.16;5099759;28;20019;-93
2022/01/28 07:46:09;;;;;;;6.00;4.32;;;;;;;15.51;43.40;101319.16;5104047;28;20554;-94
2022/01/28 07:51:20;;;;;;;5.25;3.65;;;;;;;15.51;43.63;101313.00;5606549;22;20099;-94
2022/01/28 07:53:50;;;;;;;6.75;4.50;;;;;;;15.51;43.35;101323.53;5079708;28;20063;-93
2022/01/28 07:56:53;;;;;;;6.70;4.70;;;;;;;15.50;43.56;101312.13;5060766;28;20040;-96
2022/01/28 07:59:19;;;;;;;5.50;3.95;;;;;;;15.50;43.42;101314.75;5057878;28;20045;-93
2022/01/28 08:01:51;;;;;;;6.25;4.60;;;;;;;15.50;43.19;101317.38;5080698;28;20025;-94
2022/01/28 08:04:17;;;;;;;5.40;3.72;;;;;;;15.48;43.50;101311.28;5083604;28;20017;-93
2022/01/28 08:07:18;;;;;;;5.72;3.95;;;;;;;15.49;43.38;101315.63;5078345;28;20052;-96
2022/01/28 08:09:45;;;;;;;6.05;4.03;;;;;;;15.49;43.33;101315.63;5093379;28;20135;-95
2022/01/28 08:12:15;;;;;;;6.07;4.05;;;;;;;15.49;43.30;101326.16;5144694;22;20051;-94
2022/01/28 08:15:15;;;;;;;6.07;3.65;;;;;;;15.49;43.43;101330.56;5231324;22;20027;31
2022/01/28 08:17:41;;;;;;;5.90;3.80;;;;;;;15.48;43.35;101336.69;5005887;28;20061;-93
2022/01/28 08:20:13;;;;;;;6.05;4.05;;;;;;;15.49;43.38;101334.06;5019845;28;20038;-93
2022/01/28 08:23:21;;;;;;;5.50;3.92;;;;;;;15.49;43.56;101335.84;5004003;28;20042;-93
2022/01/28 08:25:48;;;;;;;5.95;4.13;;;;;;;15.48;43.34;101334.06;5068088;23;20054;-92
2022/01/28 08:28:14;;;;;;;6.13;4.03;;;;;;;15.47;43.32;101317.44;5002285;28;20034;-92
2022/01/28 08:30:53;;;;;;;5.80;4.40;;;;;;;15.49;43.37;101326.16;5004689;28;20026;-92
2022/01/28 08:38:57;;;;;;;5.90;4.32;;;;;;;15.49;43.42;101314.78;5427177;22;20369;-93
2022/01/28 08:43:56;;;;;;;6.13;4.30;;;;;;;15.49;43.54;101331.44;5073437;28;20031;-92
2022/01/28 08:52:19;;;;;;;5.78;4.10;;;;;;;15.50;43.34;101333.16;5887822;22;20064;-92
2022/01/28 08:54:48;;;;;;;5.03;3.60;;;;;;;15.48;43.36;101307.75;5076996;28;20048;-93
2022/01/28 08:57:19;;;;;;;5.90;3.92;;;;;;;15.47;43.28;101304.28;5047001;28;20005;-93
2022/01/28 08:59:51;;;;;;;6.53;4.47;;;;;;;15.47;43.27;101312.16;5058873;28;20033;-94
2022/01/28 09:02:29;;;;;;;5.38;3.88;;;;;;;15.46;43.30;101315.69;5061380;28;20020;-93
2022/01/28 09:07:28;;;;;;;5.57;3.88;;;;;;;15.48;43.45;101327.06;4997006;28;20041;-92
2022/01/28 09:09:58;;;;;;;5.50;3.78;;;;;;;15.49;43.48;101326.16;4981865;28;20085;-91
2022/01/28 09:12:38;;;;;;;6.13;3.85;;;;;;;15.49;43.37;101325.31;4971721;28;20399;-91
2022/01/28 09:26:39;;;;;;;6.15;3.90;;;;;;;15.48;43.41;101353.38;5412273;23;20046;-92
2022/01/28 09:29:37;;;;;;;5.93;4.13;;;;;;;15.49;43.70;101363.00;4978884;28;20079;-93
2022/01/28 09:35:56;;;;;;;5.57;3.78;;;;;;;15.51;43.42;101366.50;4978282;28;20464;-93
2022/01/28 09:41:10;;;;;;;6.88;4.60;;;;;;;15.48;43.35;101371.78;5238591;23;20063;-94
2022/01/28 09:43:53;;;;;;;6.10;4.40;;;;;;;15.49;43.23;101378.78;5106790;23;20058;-93
2022/01/28 09:51:33;;;;;;;6.00;4.15;;;;;;;15.49;43.24;101378.78;5936965;23;20020;-93
2022/01/28 09:54:05;;;;;;;6.05;4.18;;;;;;;15.48;43.14;101387.56;4948294;28;20019;-95
2022/01/28 09:56:55;;;;;;;5.82;3.83;;;;;;;15.50;43.40;101388.41;4980471;28;20035;-94
2022/01/28 09:59:38;;;;;;;7.13;4.88;;;;;;;15.47;43.32;101380.56;4964139;28;20054;-93
2022/01/28 10:02:10;;;;;;;6.82;4.57;;;;;;;15.50;43.29;101380.53;4978444;28;20074;-92
2022/01/28 10:07:15;;;;;;;6.45;4.43;;;;;;;15.48;43.21;101370.91;5520124;23;20087;-90
2022/01/28 10:09:56;;;;;;;6.57;4.45;;;;;;;15.49;43.38;101378.78;4972085;28;20118;-92
2022/01/28 10:15:18;;;;;;;5.93;4.28;;;;;;;15.48;43.13;101350.75;5120387;23;20046;-92
2022/01/28 10:18:18;;;;;;;7.72;4.78;;;;;;;15.50;43.55;101346.31;4998712;28;20094;-92
2022/01/28 10:20:49;;;;;;;6.78;4.47;;;;;;;15.49;43.43;101347.22;4975210;28;20039;-93
2022/01/28 10:23:44;;;;;;;5.47;3.95;;;;;;;15.51;43.30;101347.22;4996700;28;20034;-91
2022/01/28 10:26:18;;;;;;;5.75;4.10;;;;;;;15.49;43.44;101349.84;4997048;28;20074;-92
2022/01/28 10:28:51;;;;;;;5.90;4.25;;;;;;;15.48;43.48;101366.53;4996357;28;20504;-93
2022/01/28 10:31:18;;;;;;;5.85;4.03;;;;;;;15.49;43.33;101383.19;4982304;28;20039;-92
2022/01/28 10:33:44;;;;;;;6.32;4.30;;;;;;;15.50;43.08;101391.06;4992804;28;20045;-91
2022/01/28 10:36:10;;;;;;;6.22;3.80;;;;;;;15.49;43.27;101388.47;4993412;28;20027;-91
2022/01/28 10:41:48;;;;;;;6.82;4.50;;;;;;;15.50;43.41;101393.69;5095161;23;20052;-93
2022/01/28 10:50:44;;;;;;;5.85;4.07;;;;;;;15.50;43.25;101401.59;5474355;23;20038;-95
2022/01/28 10:53:19;;;;;;;6.82;4.97;;;;;;;15.50;43.29;101395.47;4944687;29;20036;-95
2022/01/28 10:55:57;;;;;;;6.50;4.75;;;;;;;15.50;43.33;101391.06;4934102;29;20059;-93
2022/01/28 10:58:39;;;;;;;7.00;4.88;;;;;;;15.51;43.41;101379.69;4929333;29;20024;-93
2022/01/28 11:01:12;;;;;;;6.55;4.63;;;;;;;15.50;43.29;101369.16;4900081;29;20020;-91
2022/01/28 11:03:43;;;;;;;6.75;4.60;;;;;;;15.51;43.11;101365.63;4959186;28;20024;-92
2022/01/28 11:06:16;;;;;;;7.30;4.78;;;;;;;15.49;43.19;101373.53;4944561;29;20104;-94
2022/01/28 11:08:58;;;;;;;5.93;4.22;;;;;;;15.49;43.23;101370.91;4928995;29;20038;-94
2022/01/28 11:11:31;;;;;;;7.43;4.95;;;;;;;15.49;43.30;101368.25;4925229;29;20034;-91
2022/01/28 11:13:58;;;;;;;6.65;4.63;;;;;;;15.51;43.42;101369.16;4928124;29;20081;-96
2022/01/28 11:24:59;;;;;;;6.82;4.68;;;;;;;15.51;43.49;101355.09;5091572;23;20550;-93
2022/01/28 11:27:37;;;;;;;6.50;4.70;;;;;;;15.52;43.13;101357.72;4930595;28;20040;-93
2022/01/28 11:30:26;;;;;;;7.53;4.70;;;;;;;15.52;43.35;101360.38;5205938;23;20078;-93
2022/01/28 11:33:01;;;;;;;7.05;4.97;;;;;;;15.52;43.18;101355.09;4954926;29;20023;-90
2022/01/28 11:35:30;;;;;;;6.50;4.68;;;;;;;15.52;43.21;101355.09;4948647;29;20480;-90
2022/01/28 11:38:02;;;;;;;8.25;5.25;;;;;;;15.52;43.32;101349.84;4964509;29;20035;-87
2022/01/28 11:40:40;;;;;;;7.90;4.57;;;;;;;15.54;43.20;101350.69;4943233;29;20102;-87
2022/01/28 11:43:30;;;;;;;7.32;4.80;;;;;;;15.52;43.21;101347.22;4962598;29;20085;-89
2022/01/28 11:46:19;;;;;;;7.43;4.20;;;;;;;15.52;43.24;101347.22;4946909;29;20046;-89
2022/01/28 11:49:04;;;;;;;6.90;4.53;;;;;;;15.53;43.31;101343.69;4947654;29;20027;-91
2022/01/28 11:51:40;;;;;;;6.20;4.53;;;;;;;15.53;43.32;101348.06;4978787;28;20027;-95
2022/01/28 11:54:19;;;;;;;6.50;4.45;;;;;;;15.52;43.42;101339.31;4964843;28;20020;-89
2022/01/28 11:57:13;;;;;;;6.53;4.43;;;;;;;15.51;43.19;101340.22;4963281;29;20007;-91
2022/01/28 11:59:43;;;;;;;6.75;4.38;;;;;;;15.53;43.31;101342.78;4946512;29;20031;-90
2022/01/28 12:02:13;;;;;;;7.03;4.40;;;;;;;15.53;43.34;101333.16;4946922;29;20037;-90
2022/01/28 12:04:41;;;;;;;7.43;4.80;;;;;;;15.52;43.20;101336.69;4931493;29;20160;-90
2022/01/28 12:07:18;;;;;;;6.63;4.60;;;;;;;15.52;43.14;101339.31;4945876;29;20117;-89
2022/01/28 12:09:50;;;;;;;;;;;;;;;15.53;43.47;101338.41;4959497;29;20055;-91
2022/01/28 12:12:22;;;;;;;7.25;4.90;;;;;;;15.54;43.47;101340.16;5128156;23;19964;-91
2022/01/28 12:15:14;;;;;;;6.32;4.45;;;;;;;15.53;43.42;101338.41;4976950;28;20015;-93
2022/01/28 12:17:45;;;;;;;7.40;5.50;;;;;;;15.53;43.25;101354.22;4981071;28;20035;-91
2022/01/28 12:20:21;;;;;;;7.20;4.78;;;;;;;15.54;43.18;101358.59;4978115;28;20540;-92
2022/01/28 12:26:20;;;;;;;7.75;5.03;;;;;;;15.54;43.41;101345.44;4998844;28;20277;-93
2022/01/28 12:28:53;;;;;;;7.05;4.60;;;;;;;15.55;43.20;101341.03;4982477;28;20019;-94
2022/01/28 12:31:29;;;;;;;6.78;4.93;;;;;;;15.53;43.13;101333.16;4993531;28;20034;-93
2022/01/28 12:33:58;;;;;;;6.85;4.75;;;;;;;15.54;43.47;101334.91;4988920;28;20349;-92
2022/01/28 12:36:33;;;;;;;7.57;5.30;;;;;;;15.55;43.22;101331.38;4958287;28;20034;-93
2022/01/28 12:41:42;;;;;;;7.15;4.80;;;;;;;15.54;43.38;101329.63;4995177;28;20066;-93
2022/01/28 12:44:16;;;;;;;7.20;4.82;;;;;;;15.55;43.22;101333.16;4971673;28;20408;-92
2022/01/28 12:46:54;;;;;;;6.72;4.63;;;;;;;15.54;43.04;101329.63;4974619;28;20090;-91
2022/01/28 12:49:27;;;;;;;7.20;5.07;;;;;;;15.55;43.33;101334.00;4983045;28;20078;-93
2022/01/28 12:51:57;;;;;;;7.95;4.95;;;;;;;15.55;43.37;101336.63;4949592;28;20086;-93
2022/01/28 12:54:37;;;;;;;7.68;4.97;;;;;;;15.56;43.41;101338.38;4972783;28;20065;-92
2022/01/28 12:57:24;;;;;;;6.82;4.78;;;;;;;15.56;43.03;101327.84;4979961;28;20013;-90
2022/01/28 12:59:51;;;;;;;7.13;4.72;;;;;;;15.56;43.11;101324.38;4978156;28;20045;-90
2022/01/28 13:02:18;;;;;;;7.60;4.68;;;;;;;15.57;43.54;101324.38;4972968;28;20023;-90
2022/01/28 13:10:23;;;;;;;;;;;;;;;15.57;43.40;101321.72;4979668;28;20049;-93
2022/01/28 13:12:50;;;;;;;6.95;4.80;;;;;;;15.57;43.25;101313.84;4987563;28;19914;-88
2022/01/28 13:15:17;;;;;;;8.18;5.25;;;;;;;15.59;43.38;101307.69;4971813;28;20031;-88
2022/01/28 13:17:55;;;;;;;7.43;5.00;;;;;;;15.56;43.27;101312.06;4959124;28;20037;-91
2022/01/28 13:20:22;;;;;;;6.93;4.65;;;;;;;15.57;43.17;101298.06;4973885;28;20094;-90
2022/01/28 13:23:00;;;;;;;7.55;5.28;;;;;;;15.57;43.31;101303.31;4972200;28;20023;-92
2022/01/28 13:25:35;;;;;;;7.47;4.88;;;;;;;15.59;43.51;101310.31;4968943;28;20010;-96
2022/01/28 13:28:18;;;;;;;8.10;4.80;;;;;;;15.57;43.38;101311.22;4997962;28;20082;-96
2022/01/28 13:30:55;;;;;;;6.95;4.50;;;;;;;15.56;43.23;101301.53;4980617;28;20027;-92
2022/01/28 13:33:28;;;;;;;8.00;5.05;;;;;;;15.59;43.44;101295.38;4979771;28;20114;-91
2022/01/28 13:35:59;;;;;;;7.43;4.65;;;;;;;15.59;43.29;101307.69;4981642;28;20027;-91
2022/01/28 13:38:33;;;;;;;7.25;4.50;;;;;;;15.60;43.15;101306.78;4972859;28;20068;-90
2022/01/28 13:40:59;;;;;;;7.07;5.18;;;;;;;15.59;43.34;101316.44;4980808;28;20101;-90
2022/01/28 13:43:25;;;;;;;7.15;5.05;;;;;;;15.59;43.30;101308.53;4970440;29;20038;-90
2022/01/28 13:45:57;;;;;;;7.82;5.30;;;;;;;15.61;43.22;101308.53;4977606;28;20031;-89
2022/01/28 13:48:33;;;;;;;7.10;4.88;;;;;;;15.61;43.40;101324.31;4960147;28;20027;-90
2022/01/28 13:51:16;;;;;;;7.38;5.35;;;;;;;15.59;43.34;101315.56;4955841;28;20031;-90
2022/01/28 13:56:35;;;;;;;6.75;4.30;;;;;;;15.61;43.31;101319.06;4980975;29;20067;-92
2022/01/28 13:59:11;;;;;;;6.18;4.53;;;;;;;15.62;43.41;101320.78;4964235;29;20015;-92
2022/01/28 14:05:13;;;;;;;6.80;4.57;;;;;;;15.61;43.21;101308.53;4971504;29;20102;-92
2022/01/28 14:07:55;;;;;;;7.25;5.30;;;;;;;15.61;43.49;101301.53;4979497;28;20043;-87
2022/01/28 14:10:54;;;;;;;6.50;4.50;;;;;;;15.62;43.44;101307.63;4980931;29;20038;-87
2022/01/28 14:13:40;;;;;;;6.90;4.57;;;;;;;15.62;43.51;101297.13;4980446;29;20050;-87
2022/01/28 14:16:15;;;;;;;8.20;4.90;;;;;;;15.62;43.44;101302.38;4962625;29;20074;-88
2022/01/28 14:19:08;;;;;;;8.02;5.25;;;;;;;15.63;43.35;101301.47;4965091;29;20035;-88
2022/01/28 14:21:55;;;;;;;7.05;4.50;;;;;;;15.64;43.27;101292.72;4969236;29;20039;-86
2022/01/28 14:25:07;;;;;;;8.27;5.00;;;;;;;15.64;43.64;101272.53;4980379;29;20027;-86
2022/01/28 14:31:08;;;;;;;6.82;4.80;;;;;;;15.63;43.16;101269.91;4972803;29;20062;-86
2022/01/28 14:33:55;;;;;;;7.50;4.88;;;;;;;15.64;43.41;101259.38;4980419;29;20018;-86
2022/01/28 14:36:29;;;;;;;6.97;4.97;;;;;;;15.64;43.47;101261.16;4980388;29;20011;-87
2022/01/28 14:39:29;;;;;;;7.45;5.03;;;;;;;15.66;43.47;101259.38;4980527;29;20043;-89
2022/01/28 14:42:02;;;;;;;7.15;4.68;;;;;;;15.66;43.30;101269.88;4979794;29;20034;-92
2022/01/28 14:44:54;;;;;;;7.47;5.30;;;;;;;15.65;43.46;101266.38;4966626;29;20015;-89
2022/01/28 14:47:22;;;;;;;7.32;5.15;;;;;;;15.67;43.52;101271.63;4977215;28;20039;-90
2022/01/28 14:49:49;;;;;;;8.55;5.55;;;;;;;15.66;43.48;101264.63;4948007;29;20031;-87
2022/01/28 14:52:23;;;;;;;8.75;5.07;;;;;;;15.66;43.31;101265.50;4963685;29;20050;-88
2022/01/28 14:55:32;;;;;;;8.02;5.22;;;;;;;15.66;43.52;101259.38;4980427;29;20047;-86
2022/01/28 14:58:10;;;;;;;6.78;4.90;;;;;;;15.67;43.29;101261.09;4979538;29;20011;-90
2022/01/28 15:01:06;;;;;;;7.72;5.05;;;;;;;15.69;43.53;101259.34;4963883;29;20018;-88
2022/01/28 15:03:42;;;;;;;7.03;4.93;;;;;;;15.68;43.62;101262.84;4972614;29;20075;-89
2022/01/28 15:06:16;;;;;;;8.43;5.20;;;;;;;15.67;43.33;101250.56;4961454;29;20023;-86
2022/01/28 15:09:02;;;;;;;8.80;5.85;;;;;;;15.68;43.22;101257.56;4962790;29;20055;-88
2022/01/28 15:11:48;;;;;;;7.80;4.72;;;;;;;15.68;43.53;101262.84;4950297;29;20027;-88
2022/01/28 15:14:28;;;;;;;7.63;4.90;;;;;;;15.69;43.66;101254.09;4979892;28;20043;-90
2022/01/28 15:17:12;;;;;;;7.97;4.88;;;;;;;15.70;43.59;101250.56;4979880;29;20042;-89
2022/01/28 15:20:12;;;;;;;7.25;5.05;;;;;;;15.70;43.70;101253.19;4980227;28;20027;-88
2022/01/28 15:22:42;;;;;;;7.80;4.95;;;;;;;15.70;43.44;101253.19;4967389;29;20030;-90
2022/01/28 15:25:11;;;;;;;7.35;5.18;;;;;;;15.70;43.28;101255.81;4981104;29;20079;-87
2022/01/28 15:27:50;;;;;;;7.65;5.07;;;;;;;15.69;43.50;101251.44;4968840;29;20019;-91
2022/01/28 15:36:13;;;;;;;8.02;5.30;;;;;;;15.72;43.58;101246.13;4952214;29;20066;-92
2022/01/28 15:38:47;;;;;;;8.57;5.10;;;;;;;15.71;43.45;101231.25;4965113;29;20441;-93
2022/01/28 15:41:14;;;;;;;8.00;5.32;;;;;;;15.71;43.52;101233.88;4954938;29;20047;-93
2022/01/28 15:43:40;;;;;;;7.68;5.03;;;;;;;15.71;43.59;101237.34;4957899;29;20374;-90
2022/01/28 15:46:06;;;;;;;7.53;4.97;;;;;;;15.71;43.55;101223.34;4959419;29;20042;-91
2022/01/28 15:48:34;;;;;;;8.15;5.07;;;;;;;15.71;43.34;101225.97;4977775;29;20049;-92
2022/01/28 15:51:09;;;;;;;7.95;5.32;;;;;;;15.73;43.44;101229.47;4979519;29;20049;-91
2022/01/28 15:53:37;;;;;;;7.43;5.20;;;;;;;15.73;43.55;101229.47;4963509;29;20137;-93
2022/01/28 15:56:06;;;;;;;7.20;5.32;;;;;;;15.74;43.61;101225.94;5138055;23;20047;-90
2022/01/28 15:58:31;;;;;;;8.02;5.30;;;;;;;15.73;43.43;101229.47;4978112;28;20434;-89
2022/01/28 16:00:57;;;;;;;7.35;5.07;;;;;;;15.74;43.61;101228.56;4976627;28;20125;-89
2022/01/28 16:03:24;;;;;;;8.15;5.95;;;;;;;15.74;43.58;101235.59;4977523;28;20031;-90
2022/01/28 16:05:50;;;;;;;7.28;5.03;;;;;;;15.73;43.44;101245.25;4965361;28;20058;-87
2022/01/28 16:08:16;;;;;;;8.85;6.05;;;;;;;15.74;43.64;101246.13;4977814;28;20492;-87
2022/01/28 16:11:12;;;;;;;9.02;5.97;;;;;;;15.74;43.36;101243.50;4995433;28;20026;-91
2022/01/28 16:19:02;;;;;;;8.70;5.35;;;;;;;15.74;43.43;101257.50;4968280;28;20070;-92
2022/01/28 16:21:36;;;;;;;8.15;5.63;;;;;;;15.75;43.61;101258.41;4979326;28;20119;-93
2022/01/28 16:24:09;;;;;;;8.02;5.68;;;;;;;15.75;43.60;101259.28;4979043;28;20078;-93
2022/01/28 16:26:35;;;;;;;7.43;5.35;;;;;;;15.75;43.44;101264.56;4980241;28;20027;-93